createdAt,value
2018-05-12T00:00:07.692Z,0.00
2018-05-12T00:01:07.654Z,0.00
2018-05-12T00:02:07.656Z,0.00
2018-05-12T00:03:07.653Z,0.00
2018-05-12T00:04:07.645Z,0.00
2018-05-12T00:05:08.652Z,0.00
2018-05-12T00:06:07.630Z,0.00
2018-05-12T00:07:07.626Z,0.00
2018-05-12T00:08:07.636Z,0.00
2018-05-12T00:09:07.612Z,0.00
2018-05-12T00:10:07.648Z,0.00
2018-05-12T00:11:07.605Z,0.00
2018-05-12T00:12:07.607Z,0.00
2018-05-12T00:13:07.584Z,0.00
2018-05-12T00:14:07.598Z,0.00
2018-05-12T00:15:07.583Z,0.00
2018-05-12T00:16:07.590Z,0.00
2018-05-12T00:17:07.578Z,0.00
2018-05-12T00:18:07.577Z,0.00
2018-05-12T00:19:07.590Z,0.00
2018-05-12T00:20:07.612Z,0.00
2018-05-12T00:21:07.556Z,0.00
2018-05-12T00:22:07.548Z,0.00
2018-05-12T00:23:07.566Z,0.00
2018-05-12T00:24:07.535Z,0.00
2018-05-12T00:25:07.535Z,0.00
2018-05-12T00:26:07.528Z,0.00
2018-05-12T00:27:07.535Z,0.00
2018-05-12T00:28:07.528Z,0.00
2018-05-12T00:29:07.515Z,0.00
2018-05-12T00:30:07.504Z,0.00
2018-05-12T00:31:07.507Z,0.00
2018-05-12T00:32:07.503Z,0.00
2018-05-12T00:33:07.487Z,0.00
2018-05-12T00:34:07.491Z,0.00
2018-05-12T00:35:07.487Z,0.00
2018-05-12T00:36:07.482Z,0.00
2018-05-12T00:37:07.487Z,0.00
2018-05-12T00:38:07.471Z,0.00
2018-05-12T00:39:07.467Z,0.00
2018-05-12T00:40:07.453Z,0.00
2018-05-12T00:41:07.465Z,0.00
2018-05-12T00:42:07.459Z,0.00
2018-05-12T00:43:07.449Z,0.00
2018-05-12T00:44:07.449Z,0.00
2018-05-12T00:45:07.438Z,0.00
2018-05-12T00:46:07.444Z,0.00
2018-05-12T00:47:07.436Z,0.00
2018-05-12T00:48:07.455Z,0.00
2018-05-12T00:49:07.422Z,0.00
2018-05-12T00:50:07.411Z,0.00
2018-05-12T00:51:07.407Z,0.00
2018-05-12T00:52:07.454Z,0.00
2018-05-12T00:53:07.409Z,0.00
2018-05-12T00:54:07.414Z,0.00
2018-05-12T00:55:07.386Z,0.00
2018-05-12T00:56:07.428Z,0.00
2018-05-12T00:57:07.385Z,0.00
2018-05-12T00:58:07.371Z,0.00
2018-05-12T00:59:07.372Z,0.00
2018-05-12T01:00:07.362Z,0.00
2018-05-12T01:01:07.364Z,0.00
2018-05-12T01:02:07.360Z,0.00
2018-05-12T01:03:07.358Z,0.00
2018-05-12T01:04:07.344Z,0.00
2018-05-12T01:05:07.337Z,0.00
2018-05-12T01:06:07.326Z,0.00
2018-05-12T01:07:07.324Z,0.00
2018-05-12T01:08:07.323Z,0.00
2018-05-12T01:09:07.334Z,0.00
2018-05-12T01:10:07.329Z,0.00
2018-05-12T01:11:07.307Z,0.00
2018-05-12T01:12:07.293Z,0.00
2018-05-12T01:13:07.294Z,0.00
2018-05-12T01:14:07.296Z,0.00
2018-05-12T01:15:07.293Z,0.00
2018-05-12T01:16:07.287Z,0.00
2018-05-12T01:17:07.319Z,0.00
2018-05-12T01:18:07.270Z,0.00
2018-05-12T01:19:07.265Z,0.00
2018-05-12T01:20:07.265Z,0.00
2018-05-12T01:21:07.254Z,0.00
2018-05-12T01:22:07.255Z,0.00
2018-05-12T01:23:07.254Z,0.00
2018-05-12T01:24:07.231Z,0.00
2018-05-12T01:25:07.228Z,0.00
2018-05-12T01:26:07.232Z,0.00
2018-05-12T01:27:07.242Z,0.00
2018-05-12T01:28:07.217Z,0.00
2018-05-12T01:29:07.219Z,0.00
2018-05-12T01:30:07.206Z,0.00
2018-05-12T02:03:52.537Z,0.00
2018-05-12T02:04:52.499Z,0.00
2018-05-12T02:07:36.371Z,0.00
2018-05-12T02:08:36.335Z,0.00
2018-05-12T02:10:29.249Z,0.00
2018-05-12T02:11:29.221Z,0.00
2018-05-12T02:13:22.127Z,0.00
2018-05-12T02:14:22.113Z,0.00
2018-05-12T02:16:15.024Z,0.00
2018-05-12T02:17:14.977Z,0.00
2018-05-12T02:18:14.985Z,0.00
2018-05-12T02:19:14.979Z,0.00
2018-05-12T02:20:14.960Z,0.00
2018-05-12T02:21:14.965Z,0.00
2018-05-12T02:22:14.958Z,0.00
2018-05-12T02:23:14.945Z,0.00
2018-05-12T02:24:14.944Z,0.00
2018-05-12T02:25:14.935Z,0.00
2018-05-12T02:26:14.931Z,0.00
2018-05-12T02:27:14.924Z,0.00
2018-05-12T02:28:14.909Z,0.00
2018-05-12T02:29:14.920Z,0.00
2018-05-12T02:30:15.570Z,0.00
2018-05-12T02:31:14.917Z,0.00
2018-05-12T02:32:14.897Z,0.00
2018-05-12T02:33:14.894Z,0.00
2018-05-12T02:34:14.901Z,0.00
2018-05-12T02:35:14.876Z,0.00
2018-05-12T02:36:14.880Z,0.00
2018-05-12T02:37:14.872Z,0.00
2018-05-12T02:38:14.866Z,0.00
2018-05-12T02:39:14.856Z,0.00
2018-05-12T02:40:14.869Z,0.00
2018-05-12T02:41:14.849Z,0.00
2018-05-12T02:42:14.835Z,0.00
2018-05-12T02:43:14.833Z,0.00
2018-05-12T02:44:14.825Z,0.00
2018-05-12T02:45:14.837Z,0.00
2018-05-12T02:46:14.815Z,0.00
2018-05-12T02:47:14.815Z,0.00
2018-05-12T02:48:14.807Z,0.00
2018-05-12T02:49:14.799Z,0.00
2018-05-12T02:50:14.794Z,0.00
2018-05-12T02:51:14.791Z,0.00
2018-05-12T02:52:14.786Z,0.00
2018-05-12T02:53:14.782Z,0.00
2018-05-12T02:54:14.774Z,0.00
2018-05-12T02:55:14.767Z,0.00
2018-05-12T02:56:14.768Z,0.00
2018-05-12T02:57:14.757Z,0.00
2018-05-12T02:58:14.749Z,0.00
2018-05-12T02:59:14.747Z,0.00
2018-05-12T03:00:14.753Z,0.00
2018-05-12T03:01:14.734Z,0.00
2018-05-12T03:02:14.731Z,0.00
2018-05-12T03:03:14.724Z,0.00
2018-05-12T03:04:14.720Z,0.00
2018-05-12T03:05:14.711Z,0.00
2018-05-12T03:06:14.702Z,0.00
2018-05-12T03:07:14.708Z,0.00
2018-05-12T03:08:14.696Z,0.00
2018-05-12T03:09:14.688Z,0.00
2018-05-12T03:10:14.705Z,0.00
2018-05-12T03:11:14.687Z,0.00
2018-05-12T03:12:14.679Z,0.00
2018-05-12T03:13:14.669Z,0.00
2018-05-12T03:14:14.663Z,0.00
2018-05-12T03:15:14.680Z,0.00
2018-05-12T03:16:14.660Z,0.00
2018-05-12T03:17:14.651Z,0.00
2018-05-12T03:18:14.644Z,0.00
2018-05-12T03:19:14.638Z,0.00
2018-05-12T03:20:14.632Z,0.00
2018-05-12T03:21:14.628Z,0.00
2018-05-12T03:22:14.620Z,0.00
2018-05-12T03:23:14.611Z,0.00
2018-05-12T03:24:14.610Z,0.00
2018-05-12T03:25:14.605Z,0.00
2018-05-12T03:26:14.606Z,0.00
2018-05-12T03:27:14.597Z,0.00
2018-05-12T03:28:14.585Z,0.00
2018-05-12T03:29:14.582Z,0.00
2018-05-12T03:30:14.587Z,0.00
2018-05-12T03:31:14.570Z,0.00
2018-05-12T03:32:14.578Z,0.00
2018-05-12T03:33:14.565Z,0.00
2018-05-12T03:34:14.553Z,0.00
2018-05-12T03:35:14.564Z,5.63
2018-05-12T03:36:14.543Z,5.63
2018-05-12T03:37:14.553Z,5.63
2018-05-12T03:38:14.526Z,5.63
2018-05-12T03:39:14.534Z,5.63
2018-05-12T03:40:14.520Z,5.63
2018-05-12T03:41:14.529Z,11.25
2018-05-12T03:42:14.529Z,11.25
2018-05-12T03:43:14.507Z,11.25
2018-05-12T03:44:14.503Z,11.25
2018-05-12T03:45:14.500Z,11.25
2018-05-12T03:46:14.497Z,16.88
2018-05-12T03:47:14.487Z,16.88
2018-05-12T03:48:14.476Z,16.88
2018-05-12T03:49:14.477Z,22.50
2018-05-12T03:50:14.465Z,22.50
2018-05-12T03:51:14.460Z,22.50
2018-05-12T03:52:14.473Z,28.13
2018-05-12T03:53:14.451Z,28.13
2018-05-12T03:54:14.442Z,28.13
2018-05-12T03:55:14.440Z,33.75
2018-05-12T03:56:14.440Z,33.75
2018-05-12T03:57:14.442Z,39.38
2018-05-12T03:58:14.428Z,39.38
2018-05-12T03:59:14.424Z,45.00
2018-05-12T04:00:14.417Z,50.63
2018-05-12T04:01:14.405Z,56.25
2018-05-12T04:02:14.398Z,56.25
2018-05-12T04:03:14.398Z,56.25
2018-05-12T04:04:14.406Z,61.88
2018-05-12T04:05:14.388Z,67.50
2018-05-12T04:06:14.389Z,67.50
2018-05-12T04:07:14.390Z,67.50
2018-05-12T04:08:14.367Z,73.13
2018-05-12T04:09:14.362Z,78.75
2018-05-12T04:10:14.356Z,84.38
2018-05-12T04:11:14.353Z,90.00
2018-05-12T04:12:14.349Z,90.00
2018-05-12T04:13:14.337Z,95.63
2018-05-12T04:14:14.331Z,101.25
2018-05-12T04:15:14.338Z,101.25
2018-05-12T04:16:14.334Z,106.88
2018-05-12T04:17:14.321Z,106.88
2018-05-12T04:18:14.313Z,112.50
2018-05-12T04:19:14.309Z,118.13
2018-05-12T04:20:14.301Z,123.75
2018-05-12T04:21:14.287Z,123.75
2018-05-12T04:22:14.293Z,129.38
2018-05-12T04:23:14.287Z,135.00
2018-05-12T04:24:14.286Z,140.63
2018-05-12T04:25:14.274Z,140.63
2018-05-12T04:26:14.269Z,146.25
2018-05-12T04:27:14.279Z,151.88
2018-05-12T04:28:14.261Z,157.50
2018-05-12T04:29:14.256Z,157.50
2018-05-12T04:30:14.251Z,163.13
2018-05-12T04:31:14.263Z,168.75
2018-05-12T04:32:14.243Z,174.38
2018-05-12T04:33:14.232Z,174.38
2018-05-12T04:34:14.233Z,180.00
2018-05-12T04:35:14.237Z,180.00
2018-05-12T04:36:14.223Z,185.63
2018-05-12T04:37:14.220Z,185.63
2018-05-12T04:38:14.213Z,191.25
2018-05-12T04:39:14.209Z,196.88
2018-05-12T04:40:14.201Z,196.88
2018-05-12T04:41:14.202Z,196.88
2018-05-12T04:42:14.191Z,202.50
2018-05-12T04:43:14.251Z,202.50
2018-05-12T04:44:14.184Z,208.13
2018-05-12T04:45:14.284Z,213.75
2018-05-12T04:46:14.174Z,213.75
2018-05-12T04:47:14.173Z,219.38
2018-05-12T04:48:14.174Z,225.00
2018-05-12T04:49:14.158Z,230.63
2018-05-12T04:50:14.155Z,230.63
2018-05-12T04:51:14.148Z,236.25
2018-05-12T04:52:14.150Z,241.88
2018-05-12T04:53:14.131Z,241.88
2018-05-12T04:54:14.153Z,247.50
2018-05-12T04:55:14.141Z,253.13
2018-05-12T04:56:14.139Z,253.13
2018-05-12T04:57:14.120Z,258.75
2018-05-12T04:58:14.118Z,258.75
2018-05-12T04:59:14.109Z,264.38
2018-05-12T05:00:14.118Z,270.00
2018-05-12T05:01:14.105Z,270.00
2018-05-12T05:02:14.104Z,275.63
2018-05-12T05:03:14.097Z,281.25
2018-05-12T05:04:14.090Z,281.25
2018-05-12T05:05:14.080Z,286.88
2018-05-12T05:06:14.088Z,286.88
2018-05-12T05:07:14.078Z,292.50
2018-05-12T05:08:14.092Z,298.13
2018-05-12T05:09:14.070Z,298.13
2018-05-12T05:10:14.067Z,303.75
2018-05-12T05:11:14.076Z,309.38
2018-05-12T05:12:14.052Z,309.38
2018-05-12T05:13:14.058Z,315.00
2018-05-12T05:14:14.052Z,315.00
2018-05-12T05:15:14.085Z,320.63
2018-05-12T05:16:14.040Z,326.25
2018-05-12T05:17:14.045Z,326.25
2018-05-12T05:18:14.043Z,326.25
2018-05-12T05:19:14.028Z,331.88
2018-05-12T05:20:14.025Z,337.50
2018-05-12T05:21:14.093Z,337.50
2018-05-12T05:22:14.015Z,343.13
2018-05-12T05:23:14.016Z,354.38
2018-05-12T05:24:14.013Z,354.38
2018-05-12T05:25:14.013Z,354.38
2018-05-12T05:26:14.026Z,360.00
2018-05-12T05:27:14.000Z,365.63
2018-05-12T05:28:14.004Z,371.25
2018-05-12T05:29:13.991Z,376.88
2018-05-12T05:30:14.007Z,382.50
2018-05-12T05:31:13.981Z,382.50
2018-05-12T05:32:13.979Z,388.13
2018-05-12T05:33:13.989Z,393.75
2018-05-12T05:34:14.004Z,393.75
2018-05-12T05:35:14.005Z,399.38
2018-05-12T05:36:13.967Z,405.00
2018-05-12T05:37:13.963Z,410.63
2018-05-12T05:38:13.958Z,405.00
2018-05-12T05:39:13.954Z,410.63
2018-05-12T05:40:13.952Z,416.25
2018-05-12T05:41:13.951Z,421.88
2018-05-12T05:42:13.948Z,427.50
2018-05-12T05:43:13.942Z,433.13
2018-05-12T05:44:13.942Z,433.13
2018-05-12T05:45:13.959Z,438.75
2018-05-12T05:46:13.938Z,444.38
2018-05-12T05:47:13.933Z,444.38
2018-05-12T05:48:13.928Z,450.00
2018-05-12T05:49:13.920Z,455.63
2018-05-12T05:50:13.938Z,461.25
2018-05-12T05:51:13.932Z,461.25
2018-05-12T05:52:13.922Z,466.88
2018-05-12T05:53:13.918Z,472.50
2018-05-12T05:54:13.912Z,472.50
2018-05-12T05:55:13.912Z,478.13
2018-05-12T05:56:14.581Z,478.13
2018-05-12T05:57:13.916Z,489.38
2018-05-12T05:58:13.904Z,489.38
2018-05-12T05:59:13.897Z,495.00
2018-05-12T06:00:13.950Z,495.00
2018-05-12T06:01:13.895Z,500.63
2018-05-12T06:02:13.969Z,511.88
2018-05-12T06:03:13.896Z,517.50
2018-05-12T06:04:13.887Z,523.13
2018-05-12T06:05:13.897Z,523.13
2018-05-12T06:06:13.886Z,528.75
2018-05-12T06:07:13.987Z,523.13
2018-05-12T06:08:13.879Z,523.13
2018-05-12T06:09:13.867Z,534.38
2018-05-12T06:10:13.875Z,534.38
2018-05-12T06:11:13.877Z,528.75
2018-05-12T06:12:13.904Z,534.38
2018-05-12T06:13:13.883Z,540.00
2018-05-12T06:14:13.944Z,551.25
2018-05-12T06:15:13.883Z,556.88
2018-05-12T06:16:13.860Z,551.25
2018-05-12T06:17:13.900Z,556.88
2018-05-12T06:18:13.906Z,556.88
2018-05-12T06:19:13.858Z,551.25
2018-05-12T06:20:13.855Z,556.88
2018-05-12T06:21:13.855Z,556.88
2018-05-12T06:22:13.898Z,556.88
2018-05-12T06:23:13.894Z,562.50
2018-05-12T06:24:13.911Z,568.13
2018-05-12T06:25:13.912Z,568.13
2018-05-12T06:26:13.859Z,573.75
2018-05-12T06:27:13.876Z,573.75
2018-05-12T06:28:13.944Z,573.75
2018-05-12T06:29:13.943Z,579.38
2018-05-12T06:30:13.839Z,585.00
2018-05-12T06:31:13.845Z,590.63
2018-05-12T06:32:13.858Z,596.25
2018-05-12T06:33:13.874Z,596.25
2018-05-12T06:34:13.866Z,596.25
2018-05-12T06:35:13.872Z,601.88
2018-05-12T06:36:13.870Z,613.13
2018-05-12T06:37:13.897Z,613.13
2018-05-12T06:38:13.899Z,613.13
2018-05-12T06:39:13.845Z,613.13
2018-05-12T06:40:13.837Z,607.50
2018-05-12T06:41:13.873Z,607.50
2018-05-12T06:42:13.863Z,613.13
2018-05-12T06:43:13.848Z,618.75
2018-05-12T06:44:13.843Z,624.38
2018-05-12T06:45:13.858Z,618.75
2018-05-12T06:46:13.843Z,618.75
2018-05-12T06:47:13.837Z,613.13
2018-05-12T06:48:13.814Z,613.13
2018-05-12T06:49:13.849Z,624.38
2018-05-12T06:50:13.814Z,624.38
2018-05-12T06:51:13.818Z,624.38
2018-05-12T06:52:13.807Z,635.63
2018-05-12T06:53:13.810Z,635.63
2018-05-12T06:54:13.867Z,624.38
2018-05-12T06:55:13.902Z,630.00
2018-05-12T06:56:13.822Z,641.25
2018-05-12T06:57:14.642Z,646.88
2018-05-12T06:58:13.823Z,652.50
2018-05-12T06:59:13.837Z,652.50
2018-05-12T07:00:13.846Z,652.50
2018-05-12T07:01:14.769Z,658.13
2018-05-12T07:02:13.823Z,658.13
2018-05-12T07:03:13.883Z,658.13
2018-05-12T07:04:13.874Z,669.38
2018-05-12T07:05:13.833Z,697.50
2018-05-12T07:06:13.842Z,720.00
2018-05-12T07:07:13.829Z,804.38
2018-05-12T07:08:13.840Z,1563.75
2018-05-12T07:09:13.839Z,2323.13
2018-05-12T07:10:13.810Z,2452.50
2018-05-12T07:11:13.819Z,2604.38
2018-05-12T07:12:13.852Z,2705.63
2018-05-12T07:13:13.824Z,2576.25
2018-05-12T07:14:13.845Z,2418.75
2018-05-12T07:15:13.829Z,2632.50
2018-05-12T07:16:13.860Z,2576.25
2018-05-12T07:17:13.866Z,2621.25
2018-05-12T07:18:13.865Z,2632.50
2018-05-12T07:19:13.851Z,2536.88
2018-05-12T07:20:13.879Z,2677.50
2018-05-12T07:21:13.892Z,2666.25
2018-05-12T07:22:13.895Z,2750.63
2018-05-12T07:23:13.900Z,2863.13
2018-05-12T07:24:13.904Z,2806.88
2018-05-12T07:25:13.921Z,2711.25
2018-05-12T07:26:13.882Z,2761.88
2018-05-12T07:27:13.915Z,2806.88
2018-05-12T07:28:13.925Z,2548.13
2018-05-12T07:29:13.946Z,2559.38
2018-05-12T07:30:13.945Z,2778.75
2018-05-12T07:31:13.958Z,2666.25
2018-05-12T07:32:13.958Z,3015.00
2018-05-12T07:33:13.975Z,3054.38
2018-05-12T07:34:13.968Z,3144.38
2018-05-12T07:35:14.001Z,2936.25
2018-05-12T07:36:14.053Z,2992.50
2018-05-12T07:37:14.013Z,3037.50
2018-05-12T07:38:14.030Z,3301.88
2018-05-12T07:39:14.030Z,3346.88
2018-05-12T07:40:14.117Z,3166.88
2018-05-12T07:41:14.123Z,3144.38
2018-05-12T07:42:14.139Z,2773.13
2018-05-12T07:43:14.137Z,2913.75
2018-05-12T07:44:14.111Z,3144.38
2018-05-12T07:45:14.655Z,3071.25
2018-05-12T07:46:14.174Z,3386.25
2018-05-12T07:47:14.148Z,3285.00
2018-05-12T07:48:14.163Z,3031.88
2018-05-12T07:49:14.168Z,3088.13
2018-05-12T07:50:14.181Z,3217.50
2018-05-12T07:51:14.179Z,3335.63
2018-05-12T07:52:14.189Z,3363.75
2018-05-12T07:53:14.197Z,3076.88
2018-05-12T07:54:14.206Z,3206.25
2018-05-12T07:55:14.231Z,3318.75
2018-05-12T07:56:14.285Z,3301.88
2018-05-12T07:57:14.246Z,3206.25
2018-05-12T07:58:14.268Z,3285.00
2018-05-12T07:59:14.329Z,3375.00
2018-05-12T08:00:14.341Z,3346.88
2018-05-12T08:01:14.327Z,3712.50
2018-05-12T08:02:14.377Z,3628.13
2018-05-12T08:03:14.357Z,3481.88
2018-05-12T08:04:14.359Z,3391.88
2018-05-12T08:05:14.381Z,3487.50
2018-05-12T08:06:14.381Z,3504.38
2018-05-12T08:07:14.398Z,3341.25
2018-05-12T08:08:14.417Z,3470.63
2018-05-12T08:09:14.433Z,3397.50
2018-05-12T08:10:14.509Z,3751.88
2018-05-12T08:11:14.452Z,3892.50
2018-05-12T08:12:15.133Z,3965.63
2018-05-12T08:13:14.488Z,3684.38
2018-05-12T08:14:14.547Z,3656.25
2018-05-12T08:15:14.542Z,3886.88
2018-05-12T08:16:14.526Z,4027.50
2018-05-12T08:17:14.583Z,4078.13
2018-05-12T08:18:14.573Z,4061.25
2018-05-12T08:19:14.585Z,4291.88
2018-05-12T08:20:14.615Z,4466.25
2018-05-12T08:21:14.683Z,4438.13
2018-05-12T08:22:14.625Z,4353.75
2018-05-12T08:23:14.692Z,4635.00
2018-05-12T08:24:14.700Z,4483.13
2018-05-12T08:25:14.692Z,4303.13
2018-05-12T08:26:14.713Z,4663.13
2018-05-12T08:27:14.737Z,4511.25
2018-05-12T08:28:14.722Z,4218.75
2018-05-12T08:29:14.731Z,4291.88
2018-05-12T08:30:14.763Z,4415.63
2018-05-12T08:31:15.557Z,4449.38
2018-05-12T08:32:14.812Z,4511.25
2018-05-12T08:33:14.870Z,4606.88
2018-05-12T08:34:14.863Z,4426.88
2018-05-12T08:35:14.878Z,4201.88
2018-05-12T08:36:14.919Z,4230.00
2018-05-12T08:37:14.873Z,4629.38
2018-05-12T08:38:14.899Z,4545.00
2018-05-12T08:39:14.914Z,4573.13
2018-05-12T08:40:14.929Z,4573.13
2018-05-12T08:41:15.012Z,4561.88
2018-05-12T08:42:15.640Z,4156.88
2018-05-12T08:43:15.024Z,3954.38
2018-05-12T08:44:15.046Z,4365.00
2018-05-12T08:45:15.057Z,4488.75
2018-05-12T08:46:15.043Z,4674.38
2018-05-12T08:47:15.077Z,4455.00
2018-05-12T08:48:15.105Z,4010.63
2018-05-12T08:49:15.083Z,4156.88
2018-05-12T08:50:15.090Z,4308.75
2018-05-12T08:51:15.108Z,4421.25
2018-05-12T08:52:15.126Z,4218.75
2018-05-12T08:53:15.151Z,4050.00
2018-05-12T08:54:15.167Z,4111.88
2018-05-12T08:55:15.220Z,4494.38
2018-05-12T08:56:15.227Z,4629.38
2018-05-12T08:57:15.210Z,4308.75
2018-05-12T08:58:15.234Z,4038.75
2018-05-12T08:59:15.265Z,3937.50
2018-05-12T09:00:15.340Z,3988.13
2018-05-12T09:01:15.361Z,3948.75
2018-05-12T09:02:15.356Z,4156.88
2018-05-12T09:03:15.345Z,4500.00
2018-05-12T09:04:15.335Z,4297.50
2018-05-12T09:05:15.357Z,4348.13
2018-05-12T09:06:15.375Z,4528.13
2018-05-12T09:07:15.433Z,4179.38
2018-05-12T09:08:15.409Z,3909.38
2018-05-12T09:09:15.432Z,3881.25
2018-05-12T09:10:15.509Z,3976.88
2018-05-12T09:11:16.128Z,3886.88
2018-05-12T09:12:15.484Z,3785.63
2018-05-12T09:13:15.502Z,3729.38
2018-05-12T09:14:15.532Z,3510.00
2018-05-12T09:15:15.561Z,3656.25
2018-05-12T09:16:15.558Z,3751.88
2018-05-12T09:17:15.583Z,3735.00
2018-05-12T09:18:15.598Z,3802.50
2018-05-12T09:19:15.659Z,3774.38
2018-05-12T09:20:15.635Z,3712.50
2018-05-12T09:21:15.657Z,3543.75
2018-05-12T09:22:15.676Z,4072.50
2018-05-12T09:23:15.687Z,4128.75
2018-05-12T09:24:15.711Z,3504.38
2018-05-12T09:25:15.725Z,3358.13
2018-05-12T09:26:15.817Z,3706.88
2018-05-12T09:27:15.770Z,3740.63
2018-05-12T09:28:15.832Z,3841.88
2018-05-12T09:29:15.815Z,4055.63
2018-05-12T09:30:15.844Z,3903.75
2018-05-12T09:31:15.844Z,3864.38
2018-05-12T09:32:15.869Z,3594.38
2018-05-12T09:33:15.882Z,3847.50
2018-05-12T09:34:15.894Z,3813.75
2018-05-12T09:35:15.926Z,3808.13
2018-05-12T09:36:15.955Z,3729.38
2018-05-12T09:37:16.031Z,3723.75
2018-05-12T09:38:16.009Z,3937.50
2018-05-12T09:39:16.004Z,3841.88
2018-05-12T09:40:16.021Z,3830.63
2018-05-12T09:41:16.143Z,3847.50
2018-05-12T09:42:16.066Z,3960.00
2018-05-12T09:43:16.082Z,4044.38
2018-05-12T09:44:16.098Z,3943.13
2018-05-12T09:45:17.112Z,3706.88
2018-05-12T09:46:16.151Z,3650.63
2018-05-12T09:47:16.158Z,3898.13
2018-05-12T09:48:16.176Z,3909.38
2018-05-12T09:49:16.191Z,3892.50
2018-05-12T09:50:16.212Z,4038.75
2018-05-12T09:51:16.233Z,3723.75
2018-05-12T09:52:16.289Z,3504.38
2018-05-12T09:53:16.271Z,3808.13
2018-05-12T09:54:16.289Z,3532.50
2018-05-12T09:55:16.314Z,3695.63
2018-05-12T09:56:16.349Z,3701.25
2018-05-12T09:57:16.388Z,3661.88
2018-05-12T09:58:16.364Z,3813.75
2018-05-12T09:59:16.385Z,3594.38
2018-05-12T10:00:16.512Z,3695.63
2018-05-12T10:01:16.432Z,3785.63
2018-05-12T10:02:16.439Z,4061.25
2018-05-12T10:03:16.470Z,4342.50
2018-05-12T10:04:16.496Z,4235.63
2018-05-12T10:05:16.506Z,4201.88
2018-05-12T10:06:16.522Z,4033.13
2018-05-12T10:07:16.550Z,3971.25
2018-05-12T10:08:16.608Z,3881.25
2018-05-12T10:09:16.613Z,3825.00
2018-05-12T10:10:16.599Z,3819.38
2018-05-12T10:11:16.645Z,3836.25
2018-05-12T10:12:16.637Z,3538.13
2018-05-12T10:13:16.659Z,3510.00
2018-05-12T10:14:16.681Z,3526.88
2018-05-12T10:15:16.783Z,3780.00
2018-05-12T10:16:16.778Z,3960.00
2018-05-12T10:17:16.737Z,4078.13
2018-05-12T10:18:16.757Z,3701.25
2018-05-12T10:19:16.773Z,3808.13
2018-05-12T10:20:16.814Z,3960.00
2018-05-12T10:21:16.829Z,3926.25
2018-05-12T10:22:16.830Z,4252.50
2018-05-12T10:23:16.846Z,3999.38
2018-05-12T10:24:16.880Z,3796.88
2018-05-12T10:25:16.906Z,3813.75
2018-05-12T10:26:16.972Z,3892.50
2018-05-12T10:27:16.956Z,3858.75
2018-05-12T10:28:17.096Z,4123.13
2018-05-12T10:29:16.968Z,3723.75
2018-05-12T10:30:17.061Z,3937.50
2018-05-12T10:31:17.000Z,4111.88
2018-05-12T10:32:17.015Z,4010.63
2018-05-12T10:33:17.036Z,3971.25
2018-05-12T10:34:17.060Z,4027.50
2018-05-12T10:35:17.096Z,4027.50
2018-05-12T10:36:17.094Z,4421.25
2018-05-12T10:37:17.111Z,3993.75
2018-05-12T10:38:17.153Z,3993.75
2018-05-12T10:39:17.149Z,3937.50
2018-05-12T10:40:17.173Z,3796.88
2018-05-12T10:41:17.202Z,3819.38
2018-05-12T10:42:17.197Z,3976.88
2018-05-12T10:43:17.220Z,3988.13
2018-05-12T10:44:17.236Z,4140.00
2018-05-12T10:45:17.322Z,4095.00
2018-05-12T10:46:17.272Z,3920.63
2018-05-12T10:47:17.282Z,3706.88
2018-05-12T10:48:17.382Z,3909.38
2018-05-12T10:49:17.374Z,4089.38
2018-05-12T10:50:17.341Z,4005.00
2018-05-12T10:51:17.377Z,3892.50
2018-05-12T10:52:17.406Z,3735.00
2018-05-12T10:53:17.454Z,4061.25
2018-05-12T10:54:17.430Z,3796.88
2018-05-12T10:55:17.451Z,4095.00
2018-05-12T10:56:17.473Z,4095.00
2018-05-12T10:57:17.533Z,4089.38
2018-05-12T10:58:17.502Z,4072.50
2018-05-12T10:59:17.512Z,3937.50
2018-05-12T11:00:17.568Z,3948.75
2018-05-12T11:01:17.539Z,4027.50
2018-05-12T11:02:17.587Z,4072.50
2018-05-12T11:03:17.600Z,3678.75
2018-05-12T11:04:17.618Z,3937.50
2018-05-12T11:05:17.622Z,4033.13
2018-05-12T11:06:17.627Z,4078.13
2018-05-12T11:07:17.714Z,3931.88
2018-05-12T11:08:17.721Z,3841.88
2018-05-12T11:09:17.691Z,3943.13
2018-05-12T11:10:17.737Z,3701.25
2018-05-12T11:11:17.735Z,3886.88
2018-05-12T11:12:18.618Z,4117.50
2018-05-12T11:13:17.757Z,4033.13
2018-05-12T11:14:17.780Z,4246.88
2018-05-12T11:15:17.788Z,3003.75
2018-05-12T11:16:17.877Z,4005.00
2018-05-12T11:17:17.885Z,3830.63
2018-05-12T11:18:17.891Z,3583.13
2018-05-12T11:19:17.857Z,1130.63
2018-05-12T11:20:17.980Z,2694.38
2018-05-12T11:21:17.912Z,945.00
2018-05-12T11:22:17.898Z,1861.88
2018-05-12T11:23:17.913Z,3988.13
2018-05-12T11:24:17.932Z,3898.13
2018-05-12T11:25:17.965Z,3915.00
2018-05-12T11:26:18.046Z,3898.13
2018-05-12T11:27:18.050Z,3656.25
2018-05-12T11:28:18.056Z,3746.25
2018-05-12T11:29:18.015Z,3442.50
2018-05-12T11:30:18.073Z,3273.75
2018-05-12T11:31:18.052Z,3453.75
2018-05-12T11:32:18.099Z,3774.38
2018-05-12T11:33:18.118Z,3886.88
2018-05-12T11:34:18.093Z,3189.38
2018-05-12T11:35:18.134Z,3684.38
2018-05-12T11:36:18.125Z,3549.38
2018-05-12T11:37:18.221Z,3363.75
2018-05-12T11:38:18.160Z,3706.88
2018-05-12T11:39:18.245Z,3791.25
2018-05-12T11:40:18.291Z,4145.63
2018-05-12T11:41:18.249Z,4010.63
2018-05-12T11:42:18.222Z,3543.75
2018-05-12T11:43:18.234Z,3628.13
2018-05-12T11:44:18.263Z,4021.88
2018-05-12T11:45:18.307Z,4038.75
2018-05-12T11:46:18.296Z,3954.38
2018-05-12T11:47:18.410Z,3931.88
2018-05-12T11:48:18.325Z,3881.25
2018-05-12T11:49:18.344Z,3819.38
2018-05-12T11:50:18.363Z,3858.75
2018-05-12T11:51:18.420Z,3600.00
2018-05-12T11:52:18.393Z,3661.88
2018-05-12T11:53:18.413Z,3656.25
2018-05-12T11:54:18.431Z,4021.88
2018-05-12T11:55:18.449Z,4072.50
2018-05-12T11:56:18.551Z,3780.00
2018-05-12T11:57:18.481Z,3616.88
2018-05-12T11:58:18.614Z,3886.88
2018-05-12T11:59:18.521Z,3628.13
2018-05-12T12:00:18.599Z,2278.13
2018-05-12T12:01:18.554Z,1333.13
2018-05-12T12:02:18.569Z,1873.13
2018-05-12T12:03:18.590Z,2671.88
2018-05-12T12:04:18.675Z,928.13
2018-05-12T12:05:18.621Z,776.25
2018-05-12T12:06:18.638Z,787.50
2018-05-12T12:07:18.649Z,3661.88
2018-05-12T12:08:18.666Z,3915.00
2018-05-12T12:09:18.726Z,3892.50
2018-05-12T12:10:18.698Z,3982.50
2018-05-12T12:11:18.725Z,4173.75
2018-05-12T12:12:18.723Z,4072.50
2018-05-12T12:13:18.734Z,4162.50
2018-05-12T12:14:18.749Z,3999.38
2018-05-12T12:15:18.782Z,3982.50
2018-05-12T12:16:18.782Z,2165.63
2018-05-12T12:17:18.798Z,3375.00
2018-05-12T12:18:18.826Z,3183.75
2018-05-12T12:19:18.829Z,3048.75
2018-05-12T12:20:18.913Z,3796.88
2018-05-12T12:21:18.919Z,3661.88
2018-05-12T12:22:18.943Z,3515.63
2018-05-12T12:23:19.537Z,3656.25
2018-05-12T12:24:19.536Z,3690.00
2018-05-12T12:25:19.534Z,3403.13
2018-05-12T12:26:18.965Z,3375.00
2018-05-12T12:27:18.959Z,3358.13
2018-05-12T12:28:18.966Z,3020.63
2018-05-12T12:29:18.998Z,1676.25
2018-05-12T12:30:19.006Z,776.25
2018-05-12T12:31:19.005Z,714.38
2018-05-12T12:32:19.105Z,669.38
2018-05-12T12:33:19.080Z,585.00
2018-05-12T12:34:19.102Z,579.38
2018-05-12T12:35:19.111Z,556.88
2018-05-12T12:36:19.080Z,545.63
2018-05-12T12:37:19.139Z,517.50
2018-05-12T12:38:19.136Z,517.50
2018-05-12T12:39:19.149Z,517.50
2018-05-12T12:40:19.118Z,517.50
2018-05-12T12:41:19.167Z,528.75
2018-05-12T12:42:19.158Z,540.00
2018-05-12T12:43:19.163Z,556.88
2018-05-12T12:44:19.200Z,568.13
2018-05-12T12:45:19.182Z,573.75
2018-05-12T12:46:19.197Z,596.25
2018-05-12T12:47:19.196Z,613.13
2018-05-12T12:48:19.208Z,613.13
2018-05-12T12:49:19.207Z,607.50
2018-05-12T12:50:19.214Z,596.25
2018-05-12T12:51:19.220Z,585.00
2018-05-12T12:52:19.220Z,562.50
2018-05-12T12:53:19.233Z,556.88
2018-05-12T12:54:19.250Z,579.38
2018-05-12T12:55:19.244Z,613.13
2018-05-12T12:56:19.254Z,646.88
2018-05-12T12:57:19.258Z,675.00
2018-05-12T12:58:20.347Z,686.25
2018-05-12T12:59:19.233Z,714.38
2018-05-12T13:00:19.260Z,731.25
2018-05-12T13:01:19.246Z,731.25
2018-05-12T13:02:19.253Z,765.00
2018-05-12T13:03:19.258Z,753.75
2018-05-12T13:04:19.259Z,725.63
2018-05-12T13:05:19.310Z,675.00
2018-05-12T13:06:19.279Z,686.25
2018-05-12T13:07:19.278Z,720.00
2018-05-12T13:08:19.287Z,759.38